createdAt,value
2019-04-05T00:02:09.140Z,4.90
2019-04-05T00:04:38.301Z,4.95
2019-04-05T00:07:07.483Z,4.94
2019-04-05T00:09:36.643Z,4.98
2019-04-05T00:12:05.808Z,4.92
2019-04-05T00:14:35.160Z,4.89
2019-04-05T00:17:04.319Z,4.91
2019-04-05T00:19:33.450Z,4.94
2019-04-05T00:22:03.116Z,4.95
2019-04-05T00:24:32.335Z,4.98
2019-04-05T00:27:01.504Z,5.01
2019-04-05T00:29:30.657Z,4.98
2019-04-05T00:32:00.234Z,5.03
2019-04-05T00:34:29.504Z,4.99
2019-04-05T00:36:58.634Z,4.99
2019-04-05T00:39:27.798Z,4.97
2019-04-05T00:41:57.188Z,4.97
2019-04-05T00:44:26.365Z,4.97
2019-04-05T00:46:55.513Z,4.97
2019-04-05T00:49:25.069Z,4.97
2019-04-05T00:51:54.528Z,4.99
2019-04-05T00:54:24.356Z,4.99
2019-04-05T00:56:53.532Z,4.93
2019-04-05T00:59:22.665Z,4.91
2019-04-05T01:01:51.982Z,4.87
2019-04-05T01:04:21.168Z,4.88
2019-04-05T01:06:50.455Z,4.84
2019-04-05T01:09:19.771Z,4.81
2019-04-05T01:11:49.540Z,4.80
2019-04-05T01:14:19.175Z,4.79
2019-04-05T01:16:48.405Z,4.78
2019-04-05T01:19:19.001Z,4.72
2019-04-05T01:21:49.947Z,4.82
2019-04-05T01:24:20.761Z,4.78
2019-04-05T01:26:50.997Z,4.77
2019-04-05T01:29:20.836Z,4.82
2019-04-05T01:31:50.049Z,4.86
2019-04-05T01:34:19.215Z,4.83
2019-04-05T01:36:48.391Z,4.86
2019-04-05T01:39:17.619Z,4.78
2019-04-05T01:41:47.123Z,4.81
2019-04-05T01:44:16.358Z,4.85
2019-04-05T01:46:45.733Z,4.78
2019-04-05T01:49:14.984Z,4.71
2019-04-05T01:51:44.584Z,4.75
2019-04-05T01:54:13.974Z,4.75
2019-04-05T01:56:43.662Z,4.79
2019-04-05T01:59:12.946Z,4.80
2019-04-05T02:01:42.163Z,4.74
2019-04-05T02:04:11.279Z,4.75
2019-04-05T02:06:40.656Z,4.77
2019-04-05T02:09:12.133Z,4.77
2019-04-05T02:11:41.572Z,4.77
2019-04-05T02:14:10.932Z,4.78
2019-04-05T02:16:40.260Z,4.77
2019-04-05T02:19:12.647Z,4.81
2019-04-05T02:21:41.887Z,4.87
2019-04-05T02:24:11.010Z,4.95
2019-04-05T02:26:40.153Z,4.98
2019-04-05T02:29:09.463Z,4.98
2019-04-05T02:31:38.628Z,5.02
2019-04-05T02:34:07.765Z,5.08
2019-04-05T02:36:37.143Z,5.07
2019-04-05T02:39:08.561Z,5.08
2019-04-05T02:41:38.656Z,5.11
2019-04-05T02:44:10.700Z,5.07
2019-04-05T02:46:41.693Z,5.00
2019-04-05T02:49:12.766Z,5.01
2019-04-05T02:51:43.834Z,4.97
2019-04-05T02:54:13.731Z,5.00
2019-04-05T02:56:43.751Z,4.97
2019-04-05T02:59:14.349Z,4.95
2019-04-05T03:01:44.290Z,4.88
2019-04-05T03:04:14.145Z,4.90
2019-04-05T03:06:43.862Z,4.91
2019-04-05T03:09:13.189Z,4.91
2019-04-05T03:11:43.627Z,4.95
2019-04-05T03:14:14.264Z,4.91
2019-04-05T03:16:46.382Z,4.91
2019-04-05T03:19:24.932Z,4.83
2019-04-05T03:21:58.749Z,4.88
2019-04-05T03:24:31.767Z,4.89
2019-04-05T03:27:12.107Z,4.85
2019-04-05T03:29:42.909Z,4.86
2019-04-05T03:32:12.050Z,4.87
2019-04-05T03:34:42.501Z,4.81
2019-04-05T03:37:11.768Z,4.78
2019-04-05T03:39:41.351Z,4.85
2019-04-05T03:42:11.073Z,4.84
2019-04-05T03:44:40.418Z,4.83
2019-04-05T03:47:09.762Z,4.81
2019-04-05T03:49:38.912Z,4.82
2019-04-05T03:52:08.073Z,4.86
2019-04-05T03:54:37.472Z,4.89
2019-04-05T03:57:06.701Z,4.83
2019-04-05T03:59:36.145Z,4.89
2019-04-05T04:02:05.715Z,4.80
2019-04-05T04:04:35.098Z,4.75
2019-04-05T04:07:04.681Z,4.69
2019-04-05T04:09:34.184Z,4.73
2019-04-05T04:12:03.703Z,4.76
2019-04-05T04:14:32.833Z,4.75
2019-04-05T04:17:12.063Z,4.83
2019-04-05T04:19:34.181Z,5.20
2019-04-05T04:22:23.605Z,5.21
2019-04-05T04:24:53.033Z,5.90
2019-04-05T04:27:22.945Z,6.01
2019-04-05T04:29:53.173Z,5.94
2019-04-05T04:32:22.759Z,5.83
2019-04-05T04:34:53.513Z,5.66
2019-04-05T04:37:23.334Z,5.63
2019-04-05T04:39:52.826Z,5.58
2019-04-05T04:42:22.321Z,5.53
2019-04-05T04:44:51.509Z,5.31
2019-04-05T04:47:27.003Z,5.15
2019-04-05T04:49:53.565Z,5.05
2019-04-05T04:52:22.950Z,5.08
2019-04-05T04:54:52.482Z,4.99
2019-04-05T04:57:21.658Z,4.97
2019-04-05T04:59:51.036Z,4.93
2019-04-05T05:02:20.401Z,4.88
2019-04-05T05:04:49.680Z,4.91
2019-04-05T05:07:19.321Z,4.92
2019-04-05T05:09:48.774Z,4.87
2019-04-05T05:12:19.592Z,4.87
2019-04-05T05:14:49.009Z,4.88
2019-04-05T05:17:18.539Z,4.93
2019-04-05T05:19:48.658Z,5.01
2019-04-05T05:22:19.090Z,5.06
2019-04-05T05:24:48.342Z,4.94
2019-04-05T05:27:17.781Z,4.92
2019-04-05T05:29:47.295Z,4.87
2019-04-05T05:32:16.777Z,4.79
2019-04-05T05:34:46.264Z,4.79
2019-04-05T05:37:15.649Z,4.80
2019-04-05T05:39:44.951Z,4.87
2019-04-05T05:42:14.099Z,4.96
2019-04-05T05:44:43.450Z,5.00
2019-04-05T05:47:13.042Z,5.10
2019-04-05T05:49:42.391Z,5.17
2019-04-05T05:52:11.665Z,5.20
2019-04-05T05:54:40.863Z,5.26
2019-04-05T05:57:10.022Z,5.31
2019-04-05T05:59:39.218Z,5.26
2019-04-05T06:02:08.386Z,5.24
2019-04-05T06:04:37.841Z,5.32
2019-04-05T06:07:06.974Z,5.32
2019-04-05T06:09:36.193Z,5.19
2019-04-05T06:12:05.679Z,5.16
2019-04-05T06:14:35.547Z,5.25
2019-04-05T06:17:04.745Z,5.36
2019-04-05T06:19:34.008Z,5.41
2019-04-05T06:22:03.187Z,5.37
2019-04-05T06:24:32.485Z,5.36
2019-04-05T06:27:01.614Z,5.40
2019-04-05T06:29:30.829Z,5.48
2019-04-05T06:31:59.950Z,5.56
2019-04-05T06:34:29.448Z,5.64
2019-04-05T06:36:58.564Z,5.51
2019-04-05T06:39:27.880Z,5.60
2019-04-05T06:41:57.147Z,5.69
2019-04-05T06:44:27.921Z,5.57
2019-04-05T06:46:57.336Z,5.58
2019-04-05T06:49:26.543Z,5.61
2019-04-05T06:51:55.692Z,5.72
2019-04-05T06:54:24.959Z,5.71
2019-04-05T06:56:54.175Z,5.55
2019-04-05T06:59:23.346Z,5.63
2019-04-05T07:01:52.562Z,5.55
2019-04-05T07:04:21.861Z,5.67
2019-04-05T07:06:51.015Z,5.85
2019-04-05T07:09:20.174Z,5.92
2019-04-05T07:11:49.349Z,5.95
2019-04-05T07:14:18.633Z,5.90
2019-04-05T07:16:48.766Z,6.07
2019-04-05T07:19:17.932Z,5.93
2019-04-05T07:21:47.096Z,5.92
2019-04-05T07:24:16.433Z,6.13
2019-04-05T07:26:45.646Z,6.34
2019-04-05T07:29:14.791Z,6.61
2019-04-05T07:31:44.259Z,6.82
2019-04-05T07:34:13.582Z,6.96
2019-04-05T07:36:42.795Z,7.13
2019-04-05T07:39:11.926Z,6.79
2019-04-05T07:41:41.297Z,6.77
2019-04-05T07:44:10.472Z,6.81
2019-04-05T07:46:39.683Z,6.94
2019-04-05T07:49:09.015Z,6.84
2019-04-05T07:51:38.413Z,6.65
2019-04-05T07:54:07.595Z,7.03
2019-04-05T07:56:36.892Z,7.33
2019-04-05T07:59:06.182Z,7.33
2019-04-05T08:01:35.337Z,7.69
2019-04-05T08:04:04.640Z,7.62
2019-04-05T08:06:35.131Z,7.55
2019-04-05T08:09:10.486Z,7.96
2019-04-05T08:11:41.905Z,7.87
2019-04-05T08:14:12.309Z,8.08
2019-04-05T08:16:41.451Z,7.80
2019-04-05T08:19:10.790Z,7.86
2019-04-05T08:21:39.957Z,8.02
2019-04-05T08:24:09.772Z,8.02
2019-04-05T08:26:38.992Z,8.06
2019-04-05T08:29:08.577Z,8.33
2019-04-05T08:31:37.787Z,8.33
2019-04-05T08:34:07.122Z,8.36
2019-04-05T08:36:36.317Z,8.34
2019-04-05T08:39:07.976Z,8.29
2019-04-05T08:41:37.217Z,8.18
2019-04-05T08:44:06.784Z,8.37
2019-04-05T08:46:36.357Z,8.23
2019-04-05T08:49:10.845Z,8.15
2019-04-05T08:51:37.372Z,8.07
2019-04-05T08:54:06.616Z,8.11
2019-04-05T08:56:35.838Z,8.01
2019-04-05T08:59:05.194Z,7.80
2019-04-05T09:01:34.616Z,7.76
2019-04-05T09:04:04.223Z,7.90
2019-04-05T09:06:33.798Z,7.87
2019-04-05T09:09:05.790Z,7.98
2019-04-05T09:11:35.111Z,7.98
2019-04-05T09:14:04.275Z,8.41
2019-04-05T09:16:33.436Z,8.73
2019-04-05T09:19:02.680Z,8.97
2019-04-05T09:21:32.105Z,9.05
2019-04-05T09:24:01.512Z,8.69
2019-04-05T09:26:30.707Z,8.80
2019-04-05T09:28:59.865Z,9.24
2019-04-05T09:31:29.168Z,8.81
2019-04-05T09:33:58.304Z,9.06
2019-04-05T09:36:27.562Z,9.30
2019-04-05T09:38:56.905Z,9.27
2019-04-05T09:41:26.194Z,9.80
2019-04-05T09:43:55.435Z,9.89
2019-04-05T09:46:24.697Z,10.24
2019-04-05T09:48:53.897Z,10.74
2019-04-05T09:51:23.065Z,11.01
2019-04-05T09:53:52.218Z,11.18
2019-04-05T09:56:21.467Z,10.47
2019-04-05T09:58:50.696Z,10.66
2019-04-05T10:01:19.970Z,10.58
2019-04-05T10:03:49.127Z,10.37
2019-04-05T10:06:18.330Z,10.67
2019-04-05T10:08:47.481Z,10.51
2019-04-05T10:11:17.194Z,10.82
2019-04-05T10:13:46.501Z,11.21
2019-04-05T10:16:15.690Z,11.43
2019-04-05T10:18:44.884Z,11.46
2019-04-05T10:21:14.261Z,11.40
2019-04-05T10:23:43.722Z,10.92
2019-04-05T10:26:12.887Z,10.72
2019-04-05T10:28:42.122Z,10.50
2019-04-05T10:31:11.352Z,10.42
2019-04-05T10:33:40.561Z,10.55
2019-04-05T10:36:09.892Z,10.77
2019-04-05T10:38:39.085Z,10.73
2019-04-05T10:41:08.414Z,10.55
2019-04-05T10:43:37.584Z,10.22
2019-04-05T10:46:06.943Z,10.20
2019-04-05T10:48:36.089Z,10.02
2019-04-05T10:51:05.307Z,9.76
2019-04-05T10:53:34.516Z,9.66
2019-04-05T10:56:03.811Z,9.41
2019-04-05T10:58:33.047Z,9.78
2019-04-05T11:01:02.219Z,9.86
2019-04-05T11:03:31.541Z,9.58
2019-04-05T11:06:00.945Z,9.73
2019-04-05T11:08:30.265Z,10.01
2019-04-05T11:10:59.408Z,9.95
2019-04-05T11:13:28.789Z,9.86
2019-04-05T11:15:58.034Z,9.79
2019-04-05T11:18:27.275Z,9.89
2019-04-05T11:20:56.456Z,9.94
2019-04-05T11:23:25.850Z,9.99
2019-04-05T11:25:55.300Z,10.16
2019-04-05T11:28:24.469Z,10.08
2019-04-05T11:30:53.687Z,10.00
2019-04-05T11:33:23.413Z,10.05
2019-04-05T11:35:52.635Z,9.95
2019-04-05T11:38:24.274Z,9.99
2019-04-05T11:40:53.900Z,9.99
2019-04-05T11:43:26.887Z,9.85
2019-04-05T11:45:56.902Z,9.80
2019-04-05T11:48:26.331Z,9.81
2019-04-05T11:50:57.392Z,9.80
2019-04-05T11:53:26.581Z,9.86
2019-04-05T11:55:55.860Z,9.74
2019-04-05T11:58:25.303Z,9.82
2019-04-05T12:01:12.682Z,9.60
2019-04-05T12:03:47.106Z,9.61
2019-04-05T12:06:16.314Z,9.60
2019-04-05T12:08:45.583Z,9.53
2019-04-05T12:11:14.812Z,9.57
2019-04-05T12:13:44.040Z,9.61
2019-04-05T12:16:13.299Z,9.43
2019-04-05T12:18:42.600Z,9.55
2019-04-05T12:21:14.755Z,9.60
2019-04-05T12:23:44.229Z,9.80
2019-04-05T12:26:13.661Z,9.86
2019-04-05T12:28:42.807Z,9.77
2019-04-05T12:31:12.058Z,9.84
2019-04-05T12:33:41.501Z,10.00
2019-04-05T12:36:10.763Z,9.94
2019-04-05T12:38:39.950Z,9.77
2019-04-05T12:41:10.983Z,9.62
2019-04-05T12:43:43.804Z,9.82
2019-04-05T12:46:15.120Z,9.98
2019-04-05T12:48:45.445Z,9.96
2019-04-05T12:51:15.561Z,10.06
2019-04-05T12:53:44.240Z,10.28
2019-04-05T12:56:13.489Z,10.25
2019-04-05T12:58:42.814Z,10.20
2019-04-05T13:01:12.012Z,10.12
2019-04-05T13:03:41.219Z,9.92
2019-04-05T13:06:10.446Z,9.82
2019-04-05T13:08:40.348Z,9.87
2019-04-05T13:11:09.553Z,9.97
2019-04-05T13:13:39.008Z,9.94
2019-04-05T13:16:10.758Z,9.99
2019-04-05T13:18:39.187Z,9.85
2019-04-05T13:21:15.132Z,9.86
2019-04-05T13:23:39.409Z,9.71
2019-04-05T13:26:11.480Z,9.61
2019-04-05T13:28:39.541Z,9.75
2019-04-05T13:31:08.752Z,9.70
2019-04-05T13:33:37.932Z,9.73
2019-04-05T13:36:08.591Z,9.67
2019-04-05T13:38:37.838Z,9.68
2019-04-05T13:41:07.044Z,9.64
2019-04-05T13:43:36.396Z,9.62
2019-04-05T13:46:05.581Z,9.75
2019-04-05T13:48:34.820Z,9.58
2019-04-05T13:51:07.080Z,9.57
2019-04-05T13:53:35.163Z,9.58
2019-04-05T13:56:04.421Z,9.50
2019-04-05T13:58:33.739Z,9.51
2019-04-05T14:01:03.138Z,9.60
2019-04-05T14:03:32.372Z,9.58
2019-04-05T14:06:01.528Z,9.54
2019-04-05T14:08:30.806Z,9.55
2019-04-05T14:10:59.983Z,9.50
2019-04-05T14:13:29.207Z,9.37
2019-04-05T14:15:58.558Z,9.42
2019-04-05T14:18:27.898Z,9.42
2019-04-05T14:20:57.162Z,9.42
2019-04-05T14:23:26.355Z,9.49
2019-04-05T14:25:59.522Z,9.55
2019-04-05T14:28:26.944Z,9.78
2019-04-05T14:30:56.149Z,9.95
2019-04-05T14:33:25.531Z,10.08
2019-04-05T14:35:55.405Z,10.20
2019-04-05T14:38:24.666Z,10.24
2019-04-05T14:40:54.094Z,10.11
2019-04-05T14:43:23.483Z,9.96
2019-04-05T14:45:55.851Z,9.97
2019-04-05T14:48:27.339Z,9.88
2019-04-05T14:50:57.861Z,9.90
2019-04-05T14:53:27.082Z,9.93
2019-04-05T14:55:59.086Z,9.80
2019-04-05T14:58:28.076Z,9.86
2019-04-05T15:00:57.320Z,9.88
2019-04-05T15:03:26.739Z,9.85
2019-04-05T15:05:56.252Z,9.85
2019-04-05T15:08:25.791Z,9.88
2019-04-05T15:10:56.892Z,9.70
2019-04-05T15:13:26.636Z,9.78
2019-04-05T15:15:56.777Z,9.76
2019-04-05T15:18:29.114Z,9.66
2019-04-05T15:20:58.537Z,9.73
2019-04-05T15:23:28.036Z,9.63
2019-04-05T15:25:57.586Z,9.56
2019-04-05T15:28:26.758Z,9.46
2019-04-05T15:30:56.621Z,9.44
2019-04-05T15:33:27.874Z,9.44
2019-04-05T15:36:00.123Z,9.40
2019-04-05T15:38:31.334Z,9.43
2019-04-05T15:40:58.914Z,9.38
2019-04-05T15:43:28.276Z,9.51
2019-04-05T15:45:57.405Z,9.56
2019-04-05T15:48:26.632Z,9.57
2019-04-05T15:50:59.094Z,9.58
2019-04-05T15:53:26.806Z,9.59
2019-04-05T15:55:55.985Z,9.54
2019-04-05T15:58:25.328Z,9.46
2019-04-05T16:00:54.904Z,9.43
2019-04-05T16:03:24.149Z,9.42
2019-04-05T16:05:53.333Z,9.38
2019-04-05T16:08:22.824Z,9.32
2019-04-05T16:10:52.255Z,9.28
2019-04-05T16:13:21.472Z,9.31
2019-04-05T16:15:50.674Z,9.35
2019-04-05T16:18:20.033Z,9.44
2019-04-05T16:20:49.451Z,9.47
2019-04-05T16:23:18.617Z,9.41
2019-04-05T16:25:47.776Z,9.34
2019-04-05T16:28:17.015Z,9.29
2019-04-05T16:30:46.192Z,9.26
2019-04-05T16:33:15.438Z,9.30
2019-04-05T16:35:44.746Z,9.18
2019-04-05T16:38:13.929Z,9.18
2019-04-05T16:40:43.108Z,9.18
2019-04-05T16:43:12.284Z,9.11
2019-04-05T16:45:41.462Z,9.13
2019-04-05T16:48:10.636Z,9.21
2019-04-05T16:50:42.280Z,9.32
2019-04-05T16:53:10.965Z,9.30
2019-04-05T16:55:40.204Z,9.25
2019-04-05T16:58:09.701Z,9.15
2019-04-05T17:00:38.897Z,9.11
2019-04-05T17:03:08.062Z,9.06
2019-04-05T17:05:37.306Z,9.05
2019-04-05T17:08:06.461Z,9.01
2019-04-05T17:10:35.673Z,9.00
2019-04-05T17:13:05.005Z,9.01
2019-04-05T17:15:34.218Z,8.97
2019-04-05T17:18:03.424Z,8.95
2019-04-05T17:20:32.782Z,8.93
2019-04-05T17:23:02.305Z,8.98
2019-04-05T17:25:31.767Z,9.06
2019-04-05T17:28:01.134Z,9.09
2019-04-05T17:30:30.375Z,9.08
2019-04-05T17:32:59.568Z,9.02
2019-04-05T17:35:30.841Z,9.00
2019-04-05T17:38:00.006Z,8.93
2019-04-05T17:40:29.690Z,8.86
2019-04-05T17:42:58.897Z,8.83
2019-04-05T17:45:28.214Z,8.82
2019-04-05T17:47:57.850Z,8.80
2019-04-05T17:50:32.424Z,8.82
2019-04-05T17:53:11.999Z,8.80
2019-04-05T17:55:33.099Z,8.72
2019-04-05T17:58:05.381Z,8.74
2019-04-05T18:00:34.699Z,8.76
2019-04-05T18:03:04.352Z,8.73
2019-04-05T18:05:33.498Z,8.73
2019-04-05T18:08:03.131Z,8.72
2019-04-05T18:10:32.427Z,8.70
2019-04-05T18:13:01.825Z,8.72
2019-04-05T18:15:31.379Z,8.81
2019-04-05T18:18:00.618Z,8.82
2019-04-05T18:20:29.887Z,8.85
2019-04-05T18:22:59.163Z,8.85
2019-04-05T18:25:28.497Z,8.84
2019-04-05T18:27:58.362Z,8.78
2019-04-05T18:30:27.862Z,8.68
2019-04-05T18:32:57.138Z,8.64
2019-04-05T18:35:26.320Z,8.58
2019-04-05T18:37:55.534Z,8.50
2019-04-05T18:40:24.946Z,8.53
2019-04-05T18:42:54.170Z,8.58
2019-04-05T18:45:23.361Z,8.58
2019-04-05T18:47:52.785Z,8.60
2019-04-05T18:50:22.123Z,8.62
2019-04-05T18:52:51.639Z,8.55
2019-04-05T18:55:21.283Z,8.54
2019-04-05T18:57:50.516Z,8.48
2019-04-05T19:00:19.800Z,8.49
2019-04-05T19:02:49.072Z,8.42
2019-04-05T19:05:18.732Z,8.38
2019-04-05T19:07:48.017Z,8.40
2019-04-05T19:10:17.715Z,8.41
2019-04-05T19:12:47.383Z,8.34
2019-04-05T19:15:16.635Z,8.30
2019-04-05T19:17:45.923Z,8.34
2019-04-05T19:20:15.314Z,8.43
2019-04-05T19:22:44.529Z,8.40
2019-04-05T19:25:13.989Z,8.33
2019-04-05T19:27:43.131Z,8.33
2019-04-05T19:50:21.127Z,8.16
2019-04-05T19:52:50.501Z,8.16
2019-04-05T19:55:19.649Z,8.21
2019-04-05T19:57:48.999Z,8.18
2019-04-05T20:00:19.027Z,8.15
2019-04-05T20:02:48.289Z,8.23
2019-04-05T20:05:17.549Z,8.19
2019-04-05T20:07:46.752Z,8.16
2019-04-05T20:10:16.263Z,8.15
2019-04-05T20:12:45.500Z,8.14
2019-04-05T20:15:14.826Z,8.12
2019-04-05T20:17:44.024Z,8.06
2019-04-05T20:20:13.397Z,8.02
2019-04-05T20:22:42.581Z,8.00
2019-04-05T20:25:11.841Z,7.95
2019-04-05T20:27:41.157Z,7.91
2019-04-05T20:30:10.630Z,7.90
2019-04-05T20:32:39.949Z,7.89
2019-04-05T20:35:09.371Z,7.87
2019-04-05T20:37:40.135Z,7.85
2019-04-05T20:40:09.531Z,7.83
2019-04-05T20:42:38.702Z,7.96
2019-04-05T20:45:07.987Z,7.99
2019-04-05T20:47:37.353Z,8.02
2019-04-05T20:50:06.902Z,7.96
2019-04-05T20:52:36.128Z,7.90
2019-04-05T20:55:06.119Z,7.84
2019-04-05T20:57:35.318Z,7.85
2019-04-05T21:00:05.063Z,7.84
2019-04-05T21:02:34.254Z,7.77
2019-04-05T21:05:03.434Z,7.70
2019-04-05T21:07:32.813Z,7.67
2019-04-05T21:10:01.954Z,7.65
2019-04-05T21:12:31.111Z,7.59
2019-04-05T21:15:01.469Z,7.60
2019-04-05T21:17:30.615Z,7.60
2019-04-05T21:19:59.808Z,7.63
2019-04-05T21:22:29.356Z,7.62
2019-04-05T21:24:58.742Z,7.60
2019-04-05T21:27:27.940Z,7.53
2019-04-05T21:29:57.143Z,7.48
2019-04-05T21:32:27.938Z,7.43
2019-04-05T21:34:57.065Z,7.41
2019-04-05T21:37:26.400Z,7.39
2019-04-05T21:39:55.572Z,7.36
2019-04-05T21:42:24.721Z,7.33
2019-04-05T21:44:54.096Z,7.30
2019-04-05T21:47:23.383Z,7.34
2019-04-05T21:49:52.575Z,7.30
2019-04-05T21:52:21.753Z,7.20
2019-04-05T21:54:50.972Z,7.09
2019-04-05T21:57:20.146Z,7.01
2019-04-05T21:59:49.371Z,6.96
2019-04-05T22:02:18.655Z,6.89
2019-04-05T22:04:47.887Z,6.79
2019-04-05T22:07:17.590Z,6.68
2019-04-05T22:09:46.799Z,6.60
2019-04-05T22:12:15.995Z,6.52
2019-04-05T22:14:45.339Z,6.42
2019-04-05T22:17:14.526Z,6.32
2019-04-05T22:19:44.752Z,6.25
2019-04-05T22:22:14.238Z,6.19
2019-04-05T22:24:43.363Z,6.06
2019-04-05T22:27:12.534Z,5.98
2019-04-05T22:29:41.962Z,5.91
2019-04-05T22:32:11.671Z,5.90
2019-04-05T22:34:40.989Z,5.85
2019-04-05T22:37:10.250Z,5.74
2019-04-05T22:39:39.525Z,5.62
2019-04-05T22:42:08.785Z,5.51
2019-04-05T22:44:41.339Z,5.42
2019-04-05T22:47:08.928Z,5.41
2019-04-05T22:49:38.197Z,5.37
2019-04-05T22:52:07.362Z,5.30
2019-04-05T22:54:36.514Z,5.24
2019-04-05T22:57:05.741Z,5.14
2019-04-05T22:59:34.949Z,5.10
2019-04-05T23:02:04.179Z,5.06
2019-04-05T23:04:33.559Z,5.00
2019-04-05T23:07:02.696Z,5.06
2019-04-05T23:09:31.934Z,5.10
2019-04-05T23:12:01.241Z,5.05
2019-04-05T23:14:30.372Z,4.94
2019-04-05T23:16:59.504Z,4.84
2019-04-05T23:19:30.035Z,4.85
2019-04-05T23:22:00.916Z,4.83
2019-04-05T23:24:30.217Z,4.85
2019-04-05T23:26:59.547Z,4.82
2019-04-05T23:29:28.999Z,4.71
2019-04-05T23:31:58.694Z,4.64
2019-04-05T23:34:28.080Z,4.58
2019-04-05T23:36:57.234Z,4.53
2019-04-05T23:39:26.374Z,4.47
2019-04-05T23:41:55.821Z,4.55
2019-04-05T23:44:24.970Z,4.53
2019-04-05T23:46:54.120Z,4.47
2019-04-05T23:49:23.302Z,4.44
2019-04-05T23:51:52.495Z,4.32
2019-04-05T23:54:21.617Z,4.25
2019-04-05T23:56:50.765Z,4.28
2019-04-05T23:59:19.888Z,4.27
